sensor_id;sensor_type;location;lat;lon;timestamp;pressure;altitude;pressure_sealevel;temperature
23208;BMP180;11773;52.570;13.052;2023-06-10T00:01:43;101423.00;;;24.20
23208;BMP180;11773;52.570;13.052;2023-06-10T00:04:15;101436.00;;;24.20
23208;BMP180;11773;52.570;13.052;2023-06-10T00:06:46;101440.00;;;24.20
23208;BMP180;11773;52.570;13.052;2023-06-10T00:09:17;101435.00;;;24.20
23208;BMP180;11773;52.570;13.052;2023-06-10T00:11:47;101427.00;;;24.20
23208;BMP180;11773;52.570;13.052;2023-06-10T00:14:17;101423.00;;;24.10
23208;BMP180;11773;52.570;13.052;2023-06-10T00:16:46;101430.00;;;24.10
23208;BMP180;11773;52.570;13.052;2023-06-10T00:19:16;101429.00;;;24.00
23208;BMP180;11773;52.570;13.052;2023-06-10T00:21:47;101435.00;;;24.00
23208;BMP180;11773;52.570;13.052;2023-06-10T00:24:16;101435.00;;;24.00
23208;BMP180;11773;52.570;13.052;2023-06-10T00:26:46;101419.00;;;24.00
23208;BMP180;11773;52.570;13.052;2023-06-10T00:29:16;101428.00;;;24.00
23208;BMP180;11773;52.570;13.052;2023-06-10T00:31:46;101426.00;;;24.00
23208;BMP180;11773;52.570;13.052;2023-06-10T00:34:15;101441.00;;;23.90
23208;BMP180;11773;52.570;13.052;2023-06-10T00:36:45;101435.00;;;23.90
23208;BMP180;11773;52.570;13.052;2023-06-10T00:39:14;101419.00;;;23.90
23208;BMP180;11773;52.570;13.052;2023-06-10T00:41:45;101416.00;;;23.90
23208;BMP180;11773;52.570;13.052;2023-06-10T00:44:15;101419.00;;;23.90
23208;BMP180;11773;52.570;13.052;2023-06-10T00:46:45;101416.00;;;23.90
23208;BMP180;11773;52.570;13.052;2023-06-10T00:49:14;101413.00;;;23.80
23208;BMP180;11773;52.570;13.052;2023-06-10T00:51:45;101405.00;;;23.80
23208;BMP180;11773;52.570;13.052;2023-06-10T00:54:15;101403.00;;;23.80
23208;BMP180;11773;52.570;13.052;2023-06-10T00:56:45;101428.00;;;23.70
23208;BMP180;11773;52.570;13.052;2023-06-10T00:59:15;101425.00;;;23.70
23208;BMP180;11773;52.570;13.052;2023-06-10T01:01:45;101414.00;;;23.70
23208;BMP180;11773;52.570;13.052;2023-06-10T01:04:18;101396.00;;;23.60
23208;BMP180;11773;52.570;13.052;2023-06-10T01:06:54;101424.00;;;23.60
23208;BMP180;11773;52.570;13.052;2023-06-10T01:13:01;101441.00;;;23.50
23208;BMP180;11773;52.570;13.052;2023-06-10T01:14:45;101430.00;;;23.40
23208;BMP180;11773;52.570;13.052;2023-06-10T01:17:18;101419.00;;;23.40
23208;BMP180;11773;52.570;13.052;2023-06-10T01:19:55;101428.00;;;23.40
23208;BMP180;11773;52.570;13.052;2023-06-10T01:22:26;101427.00;;;23.40
23208;BMP180;11773;52.570;13.052;2023-06-10T01:25:00;101442.00;;;23.40
23208;BMP180;11773;52.570;13.052;2023-06-10T01:27:34;101427.00;;;23.40
23208;BMP180;11773;52.570;13.052;2023-06-10T01:30:14;101434.00;;;23.40
23208;BMP180;11773;52.570;13.052;2023-06-10T01:32:50;101443.00;;;23.30
23208;BMP180;11773;52.570;13.052;2023-06-10T01:35:24;101417.00;;;23.30
23208;BMP180;11773;52.570;13.052;2023-06-10T01:37:58;101424.00;;;23.30
23208;BMP180;11773;52.570;13.052;2023-06-10T01:40:31;101430.00;;;23.30
23208;BMP180;11773;52.570;13.052;2023-06-10T01:43:02;101427.00;;;23.20
23208;BMP180;11773;52.570;13.052;2023-06-10T01:45:31;101424.00;;;23.20
23208;BMP180;11773;52.570;13.052;2023-06-10T01:48:01;101443.00;;;23.20
23208;BMP180;11773;52.570;13.052;2023-06-10T01:50:31;101428.00;;;23.20
23208;BMP180;11773;52.570;13.052;2023-06-10T01:53:01;101430.00;;;23.20
23208;BMP180;11773;52.570;13.052;2023-06-10T01:55:30;101431.00;;;23.10
23208;BMP180;11773;52.570;13.052;2023-06-10T01:58:00;101429.00;;;23.10
23208;BMP180;11773;52.570;13.052;2023-06-10T02:00:30;101432.00;;;23.10
23208;BMP180;11773;52.570;13.052;2023-06-10T02:02:59;101442.00;;;23.10
23208;BMP180;11773;52.570;13.052;2023-06-10T02:05:29;101443.00;;;23.10
23208;BMP180;11773;52.570;13.052;2023-06-10T02:07:58;101433.00;;;23.10
23208;BMP180;11773;52.570;13.052;2023-06-10T02:10:29;101443.00;;;23.10
23208;BMP180;11773;52.570;13.052;2023-06-10T02:12:58;101443.00;;;23.00
23208;BMP180;11773;52.570;13.052;2023-06-10T02:15:28;101429.00;;;23.00
23208;BMP180;11773;52.570;13.052;2023-06-10T02:17:58;101436.00;;;23.00
23208;BMP180;11773;52.570;13.052;2023-06-10T02:20:29;101427.00;;;23.00
23208;BMP180;11773;52.570;13.052;2023-06-10T02:22:59;101431.00;;;23.00
23208;BMP180;11773;52.570;13.052;2023-06-10T02:25:29;101442.00;;;23.00
23208;BMP180;11773;52.570;13.052;2023-06-10T02:27:59;101436.00;;;22.90
23208;BMP180;11773;52.570;13.052;2023-06-10T02:30:29;101441.00;;;22.90
23208;BMP180;11773;52.570;13.052;2023-06-10T02:32:58;101430.00;;;22.90
23208;BMP180;11773;52.570;13.052;2023-06-10T02:35:29;101438.00;;;22.80
23208;BMP180;11773;52.570;13.052;2023-06-10T02:37:59;101443.00;;;22.80
23208;BMP180;11773;52.570;13.052;2023-06-10T02:40:29;101438.00;;;22.80
23208;BMP180;11773;52.570;13.052;2023-06-10T02:42:59;101451.00;;;22.70
23208;BMP180;11773;52.570;13.052;2023-06-10T02:45:28;101439.00;;;22.70
23208;BMP180;11773;52.570;13.052;2023-06-10T02:47:58;101442.00;;;22.70
23208;BMP180;11773;52.570;13.052;2023-06-10T02:50:27;101443.00;;;22.70
23208;BMP180;11773;52.570;13.052;2023-06-10T02:52:57;101442.00;;;22.70
23208;BMP180;11773;52.570;13.052;2023-06-10T02:55:27;101433.00;;;22.70
23208;BMP180;11773;52.570;13.052;2023-06-10T02:57:57;101436.00;;;22.70
23208;BMP180;11773;52.570;13.052;2023-06-10T03:00:28;101441.00;;;22.60
23208;BMP180;11773;52.570;13.052;2023-06-10T03:02:58;101439.00;;;22.60
23208;BMP180;11773;52.570;13.052;2023-06-10T03:05:31;101441.00;;;22.60
23208;BMP180;11773;52.570;13.052;2023-06-10T03:08:01;101426.00;;;22.50
23208;BMP180;11773;52.570;13.052;2023-06-10T03:10:31;101443.00;;;22.50
23208;BMP180;11773;52.570;13.052;2023-06-10T03:13:01;101441.00;;;22.50
23208;BMP180;11773;52.570;13.052;2023-06-10T03:15:31;101437.00;;;22.40
23208;BMP180;11773;52.570;13.052;2023-06-10T03:18:01;101444.00;;;22.40
23208;BMP180;11773;52.570;13.052;2023-06-10T03:20:31;101437.00;;;22.40
23208;BMP180;11773;52.570;13.052;2023-06-10T03:23:02;101441.00;;;22.40
23208;BMP180;11773;52.570;13.052;2023-06-10T03:25:32;101433.00;;;22.30
23208;BMP180;11773;52.570;13.052;2023-06-10T03:28:01;101438.00;;;22.30
23208;BMP180;11773;52.570;13.052;2023-06-10T03:30:31;101441.00;;;22.30
23208;BMP180;11773;52.570;13.052;2023-06-10T03:33:00;101434.00;;;22.30
23208;BMP180;11773;52.570;13.052;2023-06-10T03:35:32;101441.00;;;22.30
23208;BMP180;11773;52.570;13.052;2023-06-10T03:38:03;101446.00;;;22.30
23208;BMP180;11773;52.570;13.052;2023-06-10T03:40:33;101443.00;;;22.30
23208;BMP180;11773;52.570;13.052;2023-06-10T03:43:02;101454.00;;;22.30
23208;BMP180;11773;52.570;13.052;2023-06-10T03:45:32;101452.00;;;22.30
23208;BMP180;11773;52.570;13.052;2023-06-10T03:48:02;101462.00;;;22.30
23208;BMP180;11773;52.570;13.052;2023-06-10T03:50:32;101445.00;;;22.30
23208;BMP180;11773;52.570;13.052;2023-06-10T03:53:01;101459.00;;;22.30
23208;BMP180;11773;52.570;13.052;2023-06-10T03:55:31;101459.00;;;22.30
23208;BMP180;11773;52.570;13.052;2023-06-10T03:58:00;101446.00;;;22.30
23208;BMP180;11773;52.570;13.052;2023-06-10T04:00:30;101452.00;;;22.30
23208;BMP180;11773;52.570;13.052;2023-06-10T04:03:01;101450.00;;;22.30
23208;BMP180;11773;52.570;13.052;2023-06-10T04:05:31;101448.00;;;22.30
23208;BMP180;11773;52.570;13.052;2023-06-10T04:08:00;101456.00;;;22.30
23208;BMP180;11773;52.570;13.052;2023-06-10T04:10:30;101446.00;;;22.30
23208;BMP180;11773;52.570;13.052;2023-06-10T04:13:00;101456.00;;;22.30
23208;BMP180;11773;52.570;13.052;2023-06-10T04:15:30;101451.00;;;22.30
23208;BMP180;11773;52.570;13.052;2023-06-10T04:18:01;101455.00;;;22.30
23208;BMP180;11773;52.570;13.052;2023-06-10T04:20:31;101452.00;;;22.30
23208;BMP180;11773;52.570;13.052;2023-06-10T04:23:00;101462.00;;;22.30
23208;BMP180;11773;52.570;13.052;2023-06-10T04:25:30;101464.00;;;22.30
23208;BMP180;11773;52.570;13.052;2023-06-10T04:28:00;101453.00;;;22.20
23208;BMP180;11773;52.570;13.052;2023-06-10T04:30:29;101453.00;;;22.20
23208;BMP180;11773;52.570;13.052;2023-06-10T04:32:59;101460.00;;;22.20
23208;BMP180;11773;52.570;13.052;2023-06-10T04:35:29;101455.00;;;22.20
23208;BMP180;11773;52.570;13.052;2023-06-10T04:37:58;101447.00;;;22.20
23208;BMP180;11773;52.570;13.052;2023-06-10T04:40:28;101471.00;;;22.20
23208;BMP180;11773;52.570;13.052;2023-06-10T04:42:58;101465.00;;;22.20
23208;BMP180;11773;52.570;13.052;2023-06-10T04:45:28;101466.00;;;22.20
23208;BMP180;11773;52.570;13.052;2023-06-10T04:47:58;101471.00;;;22.30
23208;BMP180;11773;52.570;13.052;2023-06-10T04:50:28;101461.00;;;22.30
23208;BMP180;11773;52.570;13.052;2023-06-10T04:52:57;101457.00;;;22.30
23208;BMP180;11773;52.570;13.052;2023-06-10T04:55:27;101462.00;;;22.30
23208;BMP180;11773;52.570;13.052;2023-06-10T04:57:56;101465.00;;;22.30
23208;BMP180;11773;52.570;13.052;2023-06-10T05:00:26;101476.00;;;22.30
23208;BMP180;11773;52.570;13.052;2023-06-10T05:02:56;101477.00;;;22.30
23208;BMP180;11773;52.570;13.052;2023-06-10T05:05:25;101470.00;;;22.30
23208;BMP180;11773;52.570;13.052;2023-06-10T05:07:55;101478.00;;;22.30
23208;BMP180;11773;52.570;13.052;2023-06-10T05:10:24;101486.00;;;22.30
23208;BMP180;11773;52.570;13.052;2023-06-10T05:12:54;101488.00;;;22.30
23208;BMP180;11773;52.570;13.052;2023-06-10T05:15:24;101473.00;;;22.40
23208;BMP180;11773;52.570;13.052;2023-06-10T05:17:55;101486.00;;;22.40
23208;BMP180;11773;52.570;13.052;2023-06-10T05:20:25;101500.00;;;22.50
23208;BMP180;11773;52.570;13.052;2023-06-10T05:22:56;101498.00;;;22.60
23208;BMP180;11773;52.570;13.052;2023-06-10T05:25:32;101491.00;;;22.70
23208;BMP180;11773;52.570;13.052;2023-06-10T05:28:02;101494.00;;;22.90
23208;BMP180;11773;52.570;13.052;2023-06-10T05:30:31;101492.00;;;23.10
23208;BMP180;11773;52.570;13.052;2023-06-10T05:33:01;101495.00;;;23.30
23208;BMP180;11773;52.570;13.052;2023-06-10T05:35:31;101498.00;;;23.40
23208;BMP180;11773;52.570;13.052;2023-06-10T05:38:00;101490.00;;;23.60
23208;BMP180;11773;52.570;13.052;2023-06-10T05:40:31;101484.00;;;23.80
23208;BMP180;11773;52.570;13.052;2023-06-10T05:43:01;101499.00;;;24.00
23208;BMP180;11773;52.570;13.052;2023-06-10T05:45:30;101499.00;;;24.10
23208;BMP180;11773;52.570;13.052;2023-06-10T05:48:00;101496.00;;;24.30
23208;BMP180;11773;52.570;13.052;2023-06-10T05:50:30;101492.00;;;24.40
23208;BMP180;11773;52.570;13.052;2023-06-10T05:52:59;101502.00;;;24.50
23208;BMP180;11773;52.570;13.052;2023-06-10T05:55:29;101500.00;;;24.70
23208;BMP180;11773;52.570;13.052;2023-06-10T05:58:01;101511.00;;;24.80
23208;BMP180;11773;52.570;13.052;2023-06-10T06:00:31;101494.00;;;25.00
23208;BMP180;11773;52.570;13.052;2023-06-10T06:03:02;101494.00;;;25.10
23208;BMP180;11773;52.570;13.052;2023-06-10T06:05:31;101506.00;;;25.30
23208;BMP180;11773;52.570;13.052;2023-06-10T06:08:04;101500.00;;;25.50
23208;BMP180;11773;52.570;13.052;2023-06-10T06:10:34;101509.00;;;25.60
23208;BMP180;11773;52.570;13.052;2023-06-10T06:13:04;101517.00;;;25.70
23208;BMP180;11773;52.570;13.052;2023-06-10T06:15:33;101503.00;;;25.90
23208;BMP180;11773;52.570;13.052;2023-06-10T06:18:03;101528.00;;;26.00
23208;BMP180;11773;52.570;13.052;2023-06-10T06:20:33;101505.00;;;26.10
23208;BMP180;11773;52.570;13.052;2023-06-10T06:23:02;101518.00;;;26.20
23208;BMP180;11773;52.570;13.052;2023-06-10T06:25:32;101515.00;;;26.30
23208;BMP180;11773;52.570;13.052;2023-06-10T06:28:02;101512.00;;;26.40
23208;BMP180;11773;52.570;13.052;2023-06-10T06:30:32;101520.00;;;26.50
23208;BMP180;11773;52.570;13.052;2023-06-10T06:33:02;101511.00;;;26.70
23208;BMP180;11773;52.570;13.052;2023-06-10T06:35:33;101529.00;;;26.80
23208;BMP180;11773;52.570;13.052;2023-06-10T06:38:03;101516.00;;;26.90
23208;BMP180;11773;52.570;13.052;2023-06-10T06:40:32;101532.00;;;27.00
23208;BMP180;11773;52.570;13.052;2023-06-10T06:43:02;101517.00;;;27.20
23208;BMP180;11773;52.570;13.052;2023-06-10T06:45:31;101530.00;;;27.30
23208;BMP180;11773;52.570;13.052;2023-06-10T06:48:02;101523.00;;;27.40
23208;BMP180;11773;52.570;13.052;2023-06-10T06:50:32;101541.00;;;27.50
23208;BMP180;11773;52.570;13.052;2023-06-10T06:53:02;101538.00;;;27.70
23208;BMP180;11773;52.570;13.052;2023-06-10T06:55:31;101535.00;;;27.80
23208;BMP180;11773;52.570;13.052;2023-06-10T06:58:01;101539.00;;;27.90
23208;BMP180;11773;52.570;13.052;2023-06-10T07:00:33;101541.00;;;28.00
23208;BMP180;11773;52.570;13.052;2023-06-10T07:03:02;101549.00;;;28.10
23208;BMP180;11773;52.570;13.052;2023-06-10T07:05:32;101544.00;;;28.20
23208;BMP180;11773;52.570;13.052;2023-06-10T07:08:02;101539.00;;;28.30
23208;BMP180;11773;52.570;13.052;2023-06-10T07:10:32;101539.00;;;28.30
23208;BMP180;11773;52.570;13.052;2023-06-10T07:13:02;101558.00;;;28.40
23208;BMP180;11773;52.570;13.052;2023-06-10T07:15:31;101552.00;;;28.40
23208;BMP180;11773;52.570;13.052;2023-06-10T07:18:02;101559.00;;;28.40
23208;BMP180;11773;52.570;13.052;2023-06-10T07:20:31;101555.00;;;28.40
23208;BMP180;11773;52.570;13.052;2023-06-10T07:23:01;101562.00;;;28.30
23208;BMP180;11773;52.570;13.052;2023-06-10T07:25:31;101552.00;;;28.30
23208;BMP180;11773;52.570;13.052;2023-06-10T07:28:00;101562.00;;;28.30
23208;BMP180;11773;52.570;13.052;2023-06-10T07:30:30;101569.00;;;28.20
23208;BMP180;11773;52.570;13.052;2023-06-10T07:33:00;101569.00;;;28.20
23208;BMP180;11773;52.570;13.052;2023-06-10T07:35:31;101562.00;;;28.10
23208;BMP180;11773;52.570;13.052;2023-06-10T07:38:01;101562.00;;;28.10
23208;BMP180;11773;52.570;13.052;2023-06-10T07:40:30;101558.00;;;28.10
23208;BMP180;11773;52.570;13.052;2023-06-10T07:43:01;101562.00;;;28.10
23208;BMP180;11773;52.570;13.052;2023-06-10T07:45:31;101567.00;;;28.10
23208;BMP180;11773;52.570;13.052;2023-06-10T07:48:01;101565.00;;;28.20
23208;BMP180;11773;52.570;13.052;2023-06-10T07:50:30;101560.00;;;28.20
23208;BMP180;11773;52.570;13.052;2023-06-10T07:53:00;101567.00;;;28.30
23208;BMP180;11773;52.570;13.052;2023-06-10T07:55:30;101566.00;;;28.40
23208;BMP180;11773;52.570;13.052;2023-06-10T07:58:00;101574.00;;;28.50
23208;BMP180;11773;52.570;13.052;2023-06-10T08:00:29;101560.00;;;28.60
23208;BMP180;11773;52.570;13.052;2023-06-10T08:02:59;101572.00;;;28.70
23208;BMP180;11773;52.570;13.052;2023-06-10T08:05:29;101571.00;;;28.80
23208;BMP180;11773;52.570;13.052;2023-06-10T08:07:58;101567.00;;;29.00
23208;BMP180;11773;52.570;13.052;2023-06-10T08:10:30;101568.00;;;29.10
23208;BMP180;11773;52.570;13.052;2023-06-10T08:13:00;101571.00;;;29.20
23208;BMP180;11773;52.570;13.052;2023-06-10T08:15:29;101562.00;;;29.20
23208;BMP180;11773;52.570;13.052;2023-06-10T08:17:59;101585.00;;;29.20
23208;BMP180;11773;52.570;13.052;2023-06-10T08:20:28;101593.00;;;29.30
23208;BMP180;11773;52.570;13.052;2023-06-10T08:22:58;101577.00;;;29.30
23208;BMP180;11773;52.570;13.052;2023-06-10T08:25:28;101586.00;;;29.30
23208;BMP180;11773;52.570;13.052;2023-06-10T08:27:58;101588.00;;;29.30
23208;BMP180;11773;52.570;13.052;2023-06-10T08:30:28;101593.00;;;29.40
23208;BMP180;11773;52.570;13.052;2023-06-10T08:32:59;101606.00;;;29.40
23208;BMP180;11773;52.570;13.052;2023-06-10T08:35:29;101589.00;;;29.40
23208;BMP180;11773;52.570;13.052;2023-06-10T08:37:59;101600.00;;;29.50
23208;BMP180;11773;52.570;13.052;2023-06-10T08:40:28;101605.00;;;29.50
23208;BMP180;11773;52.570;13.052;2023-06-10T08:43:08;101598.00;;;29.50
23208;BMP180;11773;52.570;13.052;2023-06-10T08:45:39;101607.00;;;29.50
23208;BMP180;11773;52.570;13.052;2023-06-10T08:48:13;101600.00;;;29.50
23208;BMP180;11773;52.570;13.052;2023-06-10T08:50:45;101594.00;;;29.60
23208;BMP180;11773;52.570;13.052;2023-06-10T08:53:18;101586.00;;;29.60
23208;BMP180;11773;52.570;13.052;2023-06-10T08:55:51;101606.00;;;29.70
23208;BMP180;11773;52.570;13.052;2023-06-10T08:58:21;101613.00;;;29.80
23208;BMP180;11773;52.570;13.052;2023-06-10T09:00:51;101593.00;;;29.90
23208;BMP180;11773;52.570;13.052;2023-06-10T09:03:23;101591.00;;;29.90
23208;BMP180;11773;52.570;13.052;2023-06-10T09:05:54;101591.00;;;30.00
23208;BMP180;11773;52.570;13.052;2023-06-10T09:08:25;101586.00;;;30.10
23208;BMP180;11773;52.570;13.052;2023-06-10T09:10:55;101590.00;;;30.20
23208;BMP180;11773;52.570;13.052;2023-06-10T09:13:24;101584.00;;;30.40
23208;BMP180;11773;52.570;13.052;2023-06-10T09:15:54;101593.00;;;30.50
23208;BMP180;11773;52.570;13.052;2023-06-10T09:18:24;101599.00;;;30.60
23208;BMP180;11773;52.570;13.052;2023-06-10T09:20:54;101577.00;;;30.70
23208;BMP180;11773;52.570;13.052;2023-06-10T09:23:24;101571.00;;;30.80
23208;BMP180;11773;52.570;13.052;2023-06-10T09:25:58;101588.00;;;30.90
23208;BMP180;11773;52.570;13.052;2023-06-10T09:28:28;101574.00;;;31.00
23208;BMP180;11773;52.570;13.052;2023-06-10T09:31:05;101585.00;;;31.10
23208;BMP180;11773;52.570;13.052;2023-06-10T09:33:40;101587.00;;;31.10
23208;BMP180;11773;52.570;13.052;2023-06-10T09:36:10;101581.00;;;31.20
23208;BMP180;11773;52.570;13.052;2023-06-10T09:38:40;101583.00;;;31.20
23208;BMP180;11773;52.570;13.052;2023-06-10T09:41:10;101585.00;;;31.30
23208;BMP180;11773;52.570;13.052;2023-06-10T09:43:43;101600.00;;;31.30
23208;BMP180;11773;52.570;13.052;2023-06-10T09:46:20;101593.00;;;31.40
23208;BMP180;11773;52.570;13.052;2023-06-10T09:48:50;101589.00;;;31.40
23208;BMP180;11773;52.570;13.052;2023-06-10T09:51:20;101593.00;;;31.40
23208;BMP180;11773;52.570;13.052;2023-06-10T09:53:54;101599.00;;;31.40
23208;BMP180;11773;52.570;13.052;2023-06-10T09:56:35;101593.00;;;31.50
23208;BMP180;11773;52.570;13.052;2023-06-10T09:59:05;101598.00;;;31.50
23208;BMP180;11773;52.570;13.052;2023-06-10T10:01:35;101596.00;;;31.50
23208;BMP180;11773;52.570;13.052;2023-06-10T10:04:05;101595.00;;;31.50
23208;BMP180;11773;52.570;13.052;2023-06-10T10:06:35;101594.00;;;31.50
23208;BMP180;11773;52.570;13.052;2023-06-10T10:09:07;101598.00;;;31.50
23208;BMP180;11773;52.570;13.052;2023-06-10T10:11:37;101607.00;;;31.40
23208;BMP180;11773;52.570;13.052;2023-06-10T10:14:07;101605.00;;;31.40
23208;BMP180;11773;52.570;13.052;2023-06-10T10:16:40;101612.00;;;31.40
23208;BMP180;11773;52.570;13.052;2023-06-10T10:19:27;101607.00;;;31.30
23208;BMP180;11773;52.570;13.052;2023-06-10T10:22:07;101588.00;;;31.20
23208;BMP180;11773;52.570;13.052;2023-06-10T10:24:49;101592.00;;;31.20
23208;BMP180;11773;52.570;13.052;2023-06-10T10:27:27;101601.00;;;31.10
23208;BMP180;11773;52.570;13.052;2023-06-10T10:29:57;101620.00;;;31.10
23208;BMP180;11773;52.570;13.052;2023-06-10T10:32:55;101596.00;;;31.00
23208;BMP180;11773;52.570;13.052;2023-06-10T10:35:25;101607.00;;;30.90
23208;BMP180;11773;52.570;13.052;2023-06-10T10:37:55;101599.00;;;30.80
23208;BMP180;11773;52.570;13.052;2023-06-10T10:40:28;101597.00;;;30.70
23208;BMP180;11773;52.570;13.052;2023-06-10T10:42:58;101624.00;;;30.60
23208;BMP180;11773;52.570;13.052;2023-06-10T10:45:29;101618.00;;;30.50
23208;BMP180;11773;52.570;13.052;2023-06-10T10:48:05;101615.00;;;30.40
23208;BMP180;11773;52.570;13.052;2023-06-10T10:50:32;101606.00;;;30.40
23208;BMP180;11773;52.570;13.052;2023-06-10T10:53:05;101609.00;;;30.30
23208;BMP180;11773;52.570;13.052;2023-06-10T10:55:34;101619.00;;;30.20
23208;BMP180;11773;52.570;13.052;2023-06-10T10:58:06;101608.00;;;30.10
23208;BMP180;11773;52.570;13.052;2023-06-10T11:00:45;101601.00;;;30.10
23208;BMP180;11773;52.570;13.052;2023-06-10T11:03:17;101606.00;;;29.90
23208;BMP180;11773;52.570;13.052;2023-06-10T11:05:49;101608.00;;;29.90
23208;BMP180;11773;52.570;13.052;2023-06-10T11:11:22;101604.00;;;29.70
23208;BMP180;11773;52.570;13.052;2023-06-10T11:16:44;101600.00;;;29.50
23208;BMP180;11773;52.570;13.052;2023-06-10T11:19:34;101582.00;;;29.50
23208;BMP180;11773;52.570;13.052;2023-06-10T11:22:07;101587.00;;;29.40
23208;BMP180;11773;52.570;13.052;2023-06-10T11:24:38;101573.00;;;29.40
23208;BMP180;11773;52.570;13.052;2023-06-10T11:27:22;101580.00;;;29.40
23208;BMP180;11773;52.570;13.052;2023-06-10T11:32:37;101566.00;;;29.40
23208;BMP180;11773;52.570;13.052;2023-06-10T11:35:08;101563.00;;;29.40
23208;BMP180;11773;52.570;13.052;2023-06-10T11:37:38;101562.00;;;29.40
23208;BMP180;11773;52.570;13.052;2023-06-10T11:40:09;101562.00;;;29.40
23208;BMP180;11773;52.570;13.052;2023-06-10T11:42:44;101561.00;;;29.40
23208;BMP180;11773;52.570;13.052;2023-06-10T11:45:17;101543.00;;;29.40
23208;BMP180;11773;52.570;13.052;2023-06-10T11:48:00;101548.00;;;29.30
23208;BMP180;11773;52.570;13.052;2023-06-10T11:50:34;101554.00;;;29.30
23208;BMP180;11773;52.570;13.052;2023-06-10T11:53:04;101563.00;;;29.20
23208;BMP180;11773;52.570;13.052;2023-06-10T11:55:42;101552.00;;;29.20
23208;BMP180;11773;52.570;13.052;2023-06-10T11:58:20;101557.00;;;29.20
23208;BMP180;11773;52.570;13.052;2023-06-10T12:00:52;101545.00;;;29.20
23208;BMP180;11773;52.570;13.052;2023-06-10T12:03:23;101553.00;;;29.20
23208;BMP180;11773;52.570;13.052;2023-06-10T12:06:00;101546.00;;;29.20
23208;BMP180;11773;52.570;13.052;2023-06-10T12:08:31;101578.00;;;29.20
23208;BMP180;11773;52.570;13.052;2023-06-10T12:11:03;101570.00;;;29.20
23208;BMP180;11773;52.570;13.052;2023-06-10T12:13:32;101564.00;;;29.20
23208;BMP180;11773;52.570;13.052;2023-06-10T12:16:10;101563.00;;;29.20
23208;BMP180;11773;52.570;13.052;2023-06-10T12:18:39;101562.00;;;29.20
23208;BMP180;11773;52.570;13.052;2023-06-10T12:21:20;101574.00;;;29.20
23208;BMP180;11773;52.570;13.052;2023-06-10T12:24:10;101574.00;;;29.20
23208;BMP180;11773;52.570;13.052;2023-06-10T12:26:43;101569.00;;;29.20
23208;BMP180;11773;52.570;13.052;2023-06-10T12:29:21;101561.00;;;29.20
23208;BMP180;11773;52.570;13.052;2023-06-10T12:32:02;101559.00;;;29.20
23208;BMP180;11773;52.570;13.052;2023-06-10T12:34:39;101570.00;;;29.30
23208;BMP180;11773;52.570;13.052;2023-06-10T12:37:13;101571.00;;;29.30
23208;BMP180;11773;52.570;13.052;2023-06-10T12:39:50;101559.00;;;29.40
23208;BMP180;11773;52.570;13.052;2023-06-10T12:42:16;101563.00;;;29.40
23208;BMP180;11773;52.570;13.052;2023-06-10T12:44:45;101553.00;;;29.40
23208;BMP180;11773;52.570;13.052;2023-06-10T12:47:15;101549.00;;;29.50
23208;BMP180;11773;52.570;13.052;2023-06-10T12:49:45;101547.00;;;29.50
23208;BMP180;11773;52.570;13.052;2023-06-10T12:52:14;101548.00;;;29.60
23208;BMP180;11773;52.570;13.052;2023-06-10T12:54:44;101549.00;;;29.60
23208;BMP180;11773;52.570;13.052;2023-06-10T12:57:14;101548.00;;;29.60
23208;BMP180;11773;52.570;13.052;2023-06-10T12:59:43;101538.00;;;29.60
23208;BMP180;11773;52.570;13.052;2023-06-10T13:02:14;101533.00;;;29.70
23208;BMP180;11773;52.570;13.052;2023-06-10T13:04:47;101520.00;;;29.70
23208;BMP180;11773;52.570;13.052;2023-06-10T13:07:17;101530.00;;;29.80
23208;BMP180;11773;52.570;13.052;2023-06-10T13:09:47;101516.00;;;29.90
23208;BMP180;11773;52.570;13.052;2023-06-10T13:12:17;101533.00;;;30.00
23208;BMP180;11773;52.570;13.052;2023-06-10T13:14:49;101513.00;;;30.00
23208;BMP180;11773;52.570;13.052;2023-06-10T13:17:18;101523.00;;;30.10
23208;BMP180;11773;52.570;13.052;2023-06-10T13:19:49;101523.00;;;30.20
23208;BMP180;11773;52.570;13.052;2023-06-10T13:22:19;101516.00;;;30.20
23208;BMP180;11773;52.570;13.052;2023-06-10T13:24:48;101506.00;;;30.30
23208;BMP180;11773;52.570;13.052;2023-06-10T13:27:18;101510.00;;;30.40
23208;BMP180;11773;52.570;13.052;2023-06-10T13:29:47;101515.00;;;30.50
23208;BMP180;11773;52.570;13.052;2023-06-10T13:32:17;101500.00;;;30.60
23208;BMP180;11773;52.570;13.052;2023-06-10T13:34:47;101501.00;;;30.70
23208;BMP180;11773;52.570;13.052;2023-06-10T13:37:17;101493.00;;;30.70
23208;BMP180;11773;52.570;13.052;2023-06-10T13:39:47;101496.00;;;30.80
23208;BMP180;11773;52.570;13.052;2023-06-10T13:42:19;101497.00;;;30.90
23208;BMP180;11773;52.570;13.052;2023-06-10T13:44:49;101501.00;;;30.90
23208;BMP180;11773;52.570;13.052;2023-06-10T13:47:19;101491.00;;;31.00
23208;BMP180;11773;52.570;13.052;2023-06-10T13:49:49;101506.00;;;31.00
23208;BMP180;11773;52.570;13.052;2023-06-10T13:52:19;101505.00;;;31.10
23208;BMP180;11773;52.570;13.052;2023-06-10T13:54:48;101496.00;;;31.20
23208;BMP180;11773;52.570;13.052;2023-06-10T13:57:18;101496.00;;;31.20
23208;BMP180;11773;52.570;13.052;2023-06-10T13:59:48;101497.00;;;31.30
23208;BMP180;11773;52.570;13.052;2023-06-10T14:02:17;101484.00;;;31.40
23208;BMP180;11773;52.570;13.052;2023-06-10T14:04:47;101479.00;;;31.40
23208;BMP180;11773;52.570;13.052;2023-06-10T14:07:17;101492.00;;;31.50
23208;BMP180;11773;52.570;13.052;2023-06-10T14:09:47;101477.00;;;31.50
23208;BMP180;11773;52.570;13.052;2023-06-10T14:12:16;101480.00;;;31.60
23208;BMP180;11773;52.570;13.052;2023-06-10T14:14:46;101483.00;;;31.60
23208;BMP180;11773;52.570;13.052;2023-06-10T14:17:15;101473.00;;;31.60